Time;durP1;ratioP1;P1;durP2;ratioP2;P2;SDS_P1;SDS_P2;PMS_P1;PMS_P2;Temp;Humidity;BMP_temperature;BMP_pressure;BME280_temperature;BME280_humidity;BME280_pressure;Samples;Min_cycle;Max_cycle;Signal;HPM_P1;HPM_P2
2022/06/29 00:00:57;;;;;;;9.48;1.42;;;;;;;51.72;10.45;100773.22;5096190;28;20028;-60
2022/06/29 00:03:24;;;;;;;14.20;1.52;;;;;;;52.30;9.05;100781.91;5095827;28;20482;-61
2022/06/29 00:05:52;;;;;;;5.60;1.27;;;;;;;51.83;9.31;100775.91;5095821;28;20099;-60
2022/06/29 00:08:19;;;;;;;8.45;1.35;;;;;;;49.77;11.28;100775.03;5096068;28;20032;-61
2022/06/29 00:10:46;;;;;;;7.07;1.30;;;;;;;47.38;13.08;100786.66;5095888;28;20028;-60
2022/06/29 00:13:13;;;;;;;8.52;1.60;;;;;;;48.12;12.04;100768.94;5095598;28;20068;-61
2022/06/29 00:15:39;;;;;;;13.20;2.00;;;;;;;47.46;12.60;100781.97;5095584;28;20016;-61
2022/06/29 00:18:07;;;;;;;10.57;1.80;;;;;;;46.70;13.14;100781.94;5094256;28;20390;-60
2022/06/29 00:20:33;;;;;;;6.05;1.70;;;;;;;47.15;13.52;100777.19;5095645;28;20028;-61
2022/06/29 00:23:00;;;;;;;12.40;2.00;;;;;;;47.12;13.04;100766.69;5093735;28;20028;-61
2022/06/29 00:25:27;;;;;;;8.40;1.80;;;;;;;47.03;12.93;100766.13;5095599;28;20379;-61
2022/06/29 00:27:55;;;;;;;4.72;1.70;;;;;;;48.47;12.00;100758.88;5095154;28;20032;-61
2022/06/29 00:30:23;;;;;;;10.45;2.75;;;;;;;47.75;12.37;100757.66;5094832;28;20117;-61
2022/06/29 00:32:50;;;;;;;7.38;1.75;;;;;;;47.25;12.59;100772.00;5094653;28;20381;-61
2022/06/29 00:35:16;;;;;;;9.07;1.55;;;;;;;47.41;12.64;100758.94;5095087;28;20484;-61
2022/06/29 00:37:43;;;;;;;6.55;1.65;;;;;;;46.99;13.50;100754.09;5094692;28;20039;-61
2022/06/29 00:40:11;;;;;;;7.47;1.40;;;;;;;47.92;12.68;100743.25;5095175;28;20105;-61
2022/06/29 00:42:38;;;;;;;13.15;1.55;;;;;;;47.37;12.71;100747.66;5094612;28;20522;-61
2022/06/29 00:45:05;;;;;;;16.52;1.88;;;;;;;47.60;12.76;100750.59;5095058;28;20119;-61
2022/06/29 00:47:32;;;;;;;11.10;1.42;;;;;;;46.93;13.22;100751.97;5094986;28;20105;-62
2022/06/29 00:49:59;;;;;;;9.70;1.67;;;;;;;46.55;14.10;100741.88;5094746;28;20012;-61
2022/06/29 00:52:29;;;;;;;8.85;1.70;;;;;;;46.31;14.29;100741.44;5085761;28;20028;-60
2022/06/29 00:55:09;;;;;;;9.15;1.63;;;;;;;46.80;13.39;100731.53;5080534;28;20029;-63
2022/06/29 00:57:42;;;;;;;10.75;1.60;;;;;;;45.72;14.74;100731.34;5093188;28;20051;-61
2022/06/29 01:00:10;;;;;;;9.32;1.40;;;;;;;45.29;15.03;100732.50;5075947;28;20037;-61
2022/06/29 01:02:38;;;;;;;5.35;1.60;;;;;;;46.09;14.13;100727.72;5073817;28;20032;-61
2022/06/29 01:05:07;;;;;;;4.22;1.35;;;;;;;45.48;14.83;100725.91;5075950;28;20047;-61
2022/06/29 01:07:34;;;;;;;11.15;1.70;;;;;;;45.20;14.99;100731.31;5074656;28;20033;-63
2022/06/29 01:10:03;;;;;;;10.13;1.50;;;;;;;45.14;14.97;100719.00;5078728;28;20039;-63
2022/06/29 01:12:29;;;;;;;6.35;1.50;;;;;;;45.17;14.96;100726.59;5074741;28;20467;-62
2022/06/29 01:14:56;;;;;;;11.32;1.95;;;;;;;44.06;16.05;100725.88;5074309;28;20475;-60
2022/06/29 01:17:24;;;;;;;6.50;2.00;;;;;;;43.31;16.86;100727.22;5074244;28;20390;-61
2022/06/29 01:19:51;;;;;;;6.03;1.58;;;;;;;43.31;16.44;100724.34;5075289;28;20496;-63
2022/06/29 01:22:21;;;;;;;5.75;2.08;;;;;;;43.48;16.27;100721.00;5074714;28;20047;-62
2022/06/29 01:24:49;;;;;;;8.88;1.80;;;;;;;43.47;16.61;100725.94;5076387;28;20112;-60
2022/06/29 01:27:18;;;;;;;5.57;1.92;;;;;;;43.74;16.13;100730.59;5074821;28;20024;-60
2022/06/29 01:29:45;;;;;;;8.23;1.80;;;;;;;43.51;15.82;100725.75;5073943;28;20050;-60
2022/06/29 01:32:12;;;;;;;8.15;2.10;;;;;;;42.95;17.05;100736.09;5090925;27;20086;-63
2022/06/29 01:34:39;;;;;;;5.05;1.60;;;;;;;43.28;16.47;100736.75;5074242;28;20040;-61
2022/06/29 01:37:08;;;;;;;5.85;1.70;;;;;;;42.81;16.73;100746.19;5074984;28;20036;-63
2022/06/29 01:39:36;;;;;;;8.57;1.50;;;;;;;43.22;16.80;100738.72;5074697;28;20117;-62
2022/06/29 01:42:04;;;;;;;5.22;1.45;;;;;;;43.37;16.64;100736.69;5075001;28;20019;-61
2022/06/29 01:44:31;;;;;;;12.77;1.60;;;;;;;43.16;16.60;100742.75;5074217;28;20029;-61
2022/06/29 01:46:58;;;;;;;5.88;1.48;;;;;;;43.25;16.22;100752.03;5075218;28;20025;-61
2022/06/29 01:49:25;;;;;;;8.23;1.60;;;;;;;42.94;17.03;100741.03;5076968;28;20120;-60
2022/06/29 01:51:52;;;;;;;11.02;1.73;;;;;;;42.86;17.27;100756.16;5076906;28;20491;-63
2022/06/29 01:54:18;;;;;;;8.68;1.67;;;;;;;42.59;16.99;100755.09;5075666;28;20501;-62
2022/06/29 01:56:45;;;;;;;7.00;1.90;;;;;;;42.56;17.52;100761.78;5078505;28;20425;-62
2022/06/29 01:59:12;;;;;;;7.22;2.05;;;;;;;42.61;17.29;100758.25;5073771;28;20475;-62
2022/06/29 02:01:39;;;;;;;8.32;2.65;;;;;;;42.46;17.28;100768.78;5077374;28;20037;-62
2022/06/29 02:04:07;;;;;;;9.20;2.30;;;;;;;42.09;17.16;100757.56;5074466;28;20031;-61
2022/06/29 02:06:34;;;;;;;22.98;3.30;;;;;;;42.05;17.95;100761.84;5073844;28;20117;-61
2022/06/29 02:09:00;;;;;;;8.50;2.22;;;;;;;41.85;17.90;100759.53;5069937;28;20031;-61
2022/06/29 02:11:27;;;;;;;9.15;1.85;;;;;;;41.55;18.59;100762.09;5073308;28;20410;-62
2022/06/29 02:13:54;;;;;;;8.15;1.60;;;;;;;41.50;18.22;100762.75;5076087;28;20036;-61
2022/06/29 02:16:23;;;;;;;7.80;1.15;;;;;;;41.24;18.55;100764.38;5074286;28;20047;-62
2022/06/29 02:18:50;;;;;;;5.57;1.10;;;;;;;41.14;18.64;100762.78;5076040;28;20062;-62
2022/06/29 02:21:17;;;;;;;6.60;1.70;;;;;;;40.94;19.10;100772.59;5077886;28;20037;-61
2022/06/29 02:23:44;;;;;;;10.07;1.70;;;;;;;40.77;19.32;100774.13;5074161;28;20021;-61
2022/06/29 02:26:12;;;;;;;6.03;1.35;;;;;;;40.56;19.92;100781.50;5072867;28;20033;-62
2022/06/29 02:28:38;;;;;;;7.68;1.42;;;;;;;40.46;19.80;100777.06;5074589;28;20032;-61
2022/06/29 02:36:36;;;;;;;8.45;1.77;;;;;;;40.15;20.24;100782.75;5073315;28;20029;-62
2022/06/29 02:39:03;;;;;;;5.70;1.40;;;;;;;40.01;20.20;100769.09;5075001;28;20078;-61
2022/06/29 02:41:30;;;;;;;13.18;1.60;;;;;;;39.96;20.66;100779.03;5073642;28;20028;-61
2022/06/29 02:43:58;;;;;;;7.35;1.42;;;;;;;39.87;20.53;100778.97;5074218;28;20081;-61
2022/06/29 02:46:24;;;;;;;5.82;1.40;;;;;;;39.76;20.89;100773.69;5076842;28;20482;-61
2022/06/29 02:48:51;;;;;;;5.13;1.50;;;;;;;39.80;20.50;100782.06;5073078;28;20063;-61
2022/06/29 02:51:18;;;;;;;5.40;1.30;;;;;;;39.69;20.73;100782.50;5072912;28;20103;-61
2022/06/29 02:53:45;;;;;;;12.68;1.40;;;;;;;39.61;21.11;100781.19;5074369;28;20025;-62
2022/06/29 02:56:12;;;;;;;7.20;1.60;;;;;;;39.57;20.88;100791.91;5075578;28;20104;-62
2022/06/29 02:58:39;;;;;;;13.13;1.50;;;;;;;39.46;21.08;100780.09;5072886;28;20082;-62
2022/06/29 03:01:06;;;;;;;12.65;1.60;;;;;;;39.35;21.19;100791.09;5074759;28;20024;-62
2022/06/29 03:03:32;;;;;;;6.45;1.35;;;;;;;39.37;21.38;100788.56;5071907;28;20043;-62
2022/06/29 03:05:59;;;;;;;9.48;1.45;;;;;;;39.32;21.67;100795.66;5075220;28;20025;-62
2022/06/29 03:08:26;;;;;;;6.93;1.92;;;;;;;39.21;21.69;100793.19;5077759;28;20123;-62
2022/06/29 03:10:53;;;;;;;6.80;1.55;;;;;;;39.09;21.49;100787.53;5073410;28;20031;-62
2022/06/29 03:13:20;;;;;;;7.60;1.20;;;;;;;38.97;21.82;100798.47;5073205;28;20024;-62
2022/06/29 03:15:47;;;;;;;10.65;1.48;;;;;;;38.88;21.78;100789.03;5074541;28;20048;-62
2022/06/29 03:18:14;;;;;;;8.35;1.45;;;;;;;38.92;22.01;100793.34;5072703;28;20032;-64
2022/06/29 03:20:40;;;;;;;4.15;1.50;;;;;;;39.00;21.90;100793.91;5072321;28;20016;-64
2022/06/29 03:23:07;;;;;;;7.28;1.67;;;;;;;38.94;21.94;100795.72;5073567;28;20154;-65
2022/06/29 03:25:34;;;;;;;11.43;1.98;;;;;;;38.92;21.71;100803.94;5071769;28;20023;-65
2022/06/29 03:28:01;;;;;;;9.13;1.60;;;;;;;38.79;21.99;100800.34;5078925;28;20413;-64
2022/06/29 03:30:28;;;;;;;8.10;1.90;;;;;;;38.77;21.92;100802.81;5076265;28;21498;-65
2022/06/29 03:32:54;;;;;;;7.60;2.00;;;;;;;38.73;22.44;100807.84;5077768;28;20036;-62
2022/06/29 03:35:21;;;;;;;8.40;1.90;;;;;;;38.56;22.53;100807.94;5035039;28;20038;-64
2022/06/29 03:37:50;;;;;;;6.60;2.10;;;;;;;38.55;22.64;100814.88;5036204;28;20045;-64
2022/06/29 03:40:17;;;;;;;8.13;1.77;;;;;;;38.68;22.44;100824.22;5047273;28;20022;-63
2022/06/29 03:42:44;;;;;;;6.55;1.92;;;;;;;38.48;22.52;100814.31;5038293;28;20476;-63
2022/06/29 03:45:11;;;;;;;13.55;2.30;;;;;;;38.54;22.90;100832.38;5043251;28;20463;-64
2022/06/29 03:47:41;;;;;;;16.15;2.40;;;;;;;38.42;22.83;100850.19;5034533;28;20539;-63
2022/06/29 03:50:09;;;;;;;13.60;2.20;;;;;;;38.24;23.19;100847.91;5035224;28;20075;-62
2022/06/29 03:52:36;;;;;;;13.60;2.50;;;;;;;38.13;22.76;100855.94;5047883;28;20033;-63
2022/06/29 03:55:04;;;;;;;10.65;1.80;;;;;;;38.11;21.83;100839.38;5044271;28;20029;-63
2022/06/29 03:57:31;;;;;;;8.43;1.75;;;;;;;37.99;22.61;100868.53;5045247;28;20040;-63
2022/06/29 03:59:58;;;;;;;6.50;1.35;;;;;;;38.23;20.64;100866.19;5043677;28;20022;-63
2022/06/29 04:02:25;;;;;;;12.05;2.30;;;;;;;38.60;16.07;100873.16;5043678;28;20033;-62
2022/06/29 04:04:55;;;;;;;10.10;2.38;;;;;;;38.61;14.69;100875.56;5045349;28;20029;-63
2022/06/29 04:07:23;;;;;;;15.80;2.30;;;;;;;38.21;15.14;100875.16;5027835;28;20089;-63
2022/06/29 04:09:59;;;;;;;12.05;2.88;;;;;;;38.04;14.72;100888.63;5043266;28;20156;-62
2022/06/29 04:12:30;;;;;;;13.15;2.80;;;;;;;37.87;14.68;100892.78;5029417;28;20033;-65
2022/06/29 04:14:58;;;;;;;16.58;2.70;;;;;;;37.89;14.45;100904.50;5043715;28;20041;-64
2022/06/29 04:17:25;;;;;;;11.68;2.90;;;;;;;37.86;14.67;100899.69;5043550;28;20611;-61
2022/06/29 04:19:52;;;;;;;12.32;3.90;;;;;;;37.58;15.08;100911.81;5045008;28;20391;-61
2022/06/29 04:22:20;;;;;;;31.40;15.77;;;;;;;37.42;14.97;100913.44;5043885;28;20438;-62
2022/06/29 04:24:47;;;;;;;16.70;5.47;;;;;;;37.25;15.33;100909.00;5043073;28;20017;-62
2022/06/29 04:27:15;;;;;;;31.98;5.32;;;;;;;37.25;15.12;100911.81;5043450;28;20029;-62
2022/06/29 04:29:41;;;;;;;20.60;8.23;;;;;;;37.18;15.50;100923.34;5045880;28;20029;-64
2022/06/29 04:32:10;;;;;;;16.10;4.80;;;;;;;37.15;14.83;100925.00;5042260;28;20025;-61
2022/06/29 04:34:37;;;;;;;14.00;4.50;;;;;;;37.14;15.20;100931.94;5076091;28;20044;-62
2022/06/29 04:37:04;;;;;;;16.15;4.00;;;;;;;37.03;15.64;100939.13;5093213;28;20070;-62
2022/06/29 04:39:31;;;;;;;15.10;4.40;;;;;;;36.88;15.75;100952.81;5093552;28;20077;-62
2022/06/29 04:41:57;;;;;;;18.77;11.95;;;;;;;36.75;15.72;100958.34;5092479;28;20056;-62
2022/06/29 04:44:25;;;;;;;32.70;11.40;;;;;;;36.67;15.93;100956.91;5097069;28;20028;-62
2022/06/29 04:46:55;;;;;;;18.83;3.70;;;;;;;36.64;15.79;100966.28;5093755;28;20062;-61
2022/06/29 04:49:22;;;;;;;19.90;4.32;;;;;;;36.56;15.75;100973.34;5092939;28;20083;-61
2022/06/29 04:51:50;;;;;;;20.88;4.32;;;;;;;36.32;16.28;100989.63;5093258;28;20565;-61
2022/06/29 04:54:16;;;;;;;18.33;3.55;;;;;;;36.41;15.57;100980.53;5093819;28;20024;-60
2022/06/29 04:56:43;;;;;;;23.38;10.52;;;;;;;36.41;15.77;100986.19;5093841;28;20548;-61
2022/06/29 04:59:10;;;;;;;35.30;27.92;;;;;;;36.53;15.45;100996.88;5111303;28;20449;-61
2022/06/29 05:01:37;;;;;;;47.58;40.90;;;;;;;36.40;15.63;100990.25;5113960;28;20473;-61
2022/06/29 05:04:04;;;;;;;51.00;36.50;;;;;;;36.25;15.62;100992.56;5114669;28;20110;-61
2022/06/29 05:06:31;;;;;;;40.42;30.63;;;;;;;36.19;16.07;100992.28;5114740;28;20031;-61
2022/06/29 05:08:58;;;;;;;18.30;6.00;;;;;;;36.11;15.71;100990.81;5105370;28;20034;-61
2022/06/29 05:11:26;;;;;;;33.35;21.52;;;;;;;36.01;15.91;101006.75;5093011;28;20035;-61
2022/06/29 05:13:53;;;;;;;49.33;32.58;;;;;;;36.03;15.97;101003.50;5094250;28;20394;-61
2022/06/29 05:16:20;;;;;;;27.27;15.20;;;;;;;36.01;15.92;101005.97;5093382;28;20097;-62
2022/06/29 05:18:47;;;;;;;29.23;12.63;;;;;;;35.86;16.23;100998.97;5093990;28;20462;-62
2022/06/29 05:21:17;;;;;;;22.75;6.25;;;;;;;35.68;16.76;100994.41;5094081;28;20552;-61
2022/06/29 05:23:44;;;;;;;16.02;4.50;;;;;;;35.63;16.16;101002.59;5093090;28;20070;-61
2022/06/29 05:26:12;;;;;;;26.13;4.90;;;;;;;35.48;16.64;101002.03;5092636;28;20020;-62
2022/06/29 05:28:39;;;;;;;20.63;4.20;;;;;;;35.44;16.88;100998.47;5104711;28;20042;-62
2022/06/29 05:31:06;;;;;;;21.88;4.43;;;;;;;35.50;16.30;100999.56;5114102;28;20020;-62
2022/06/29 05:33:39;;;;;;;31.85;15.50;;;;;;;35.63;16.21;101006.22;5113997;28;20051;-62
2022/06/29 05:36:10;;;;;;;28.83;6.40;;;;;;;35.70;16.78;101008.91;5113886;28;20041;-62
2022/06/29 05:38:38;;;;;;;18.40;5.90;;;;;;;35.57;16.81;100999.47;5107889;28;20047;-62
2022/06/29 05:41:05;;;;;;;23.23;5.90;;;;;;;35.51;16.48;101006.00;5093642;28;20099;-62
2022/06/29 05:43:33;;;;;;;25.55;5.32;;;;;;;35.53;16.36;101004.34;5093693;28;20044;-61
2022/06/29 05:46:00;;;;;;;28.15;5.30;;;;;;;35.25;16.75;100996.31;5093525;28;20474;-61
2022/06/29 05:48:27;;;;;;;19.90;4.95;;;;;;;35.30;16.68;100996.63;5093137;28;20040;-60
2022/06/29 05:50:54;;;;;;;22.63;5.40;;;;;;;35.41;16.67;100996.50;5092852;28;20021;-61
2022/06/29 05:53:21;;;;;;;18.77;5.40;;;;;;;35.60;16.50;100992.94;5093360;28;20531;-61
2022/06/29 05:55:49;;;;;;;26.77;4.78;;;;;;;35.73;16.21;100995.97;5093396;28;20036;-62
2022/06/29 05:58:19;;;;;;;20.60;4.05;;;;;;;36.01;16.01;100986.97;5100044;28;20027;-61
2022/06/29 06:00:47;;;;;;;17.50;4.45;;;;;;;36.26;15.16;100985.66;5113760;28;20140;-61
2022/06/29 06:03:14;;;;;;;17.33;3.72;;;;;;;35.81;15.58;100994.59;5113529;28;20040;-61
2022/06/29 06:05:41;;;;;;;23.80;3.33;;;;;;;36.18;14.50;100987.03;5113604;28;20016;-61
2022/06/29 06:08:08;;;;;;;15.48;2.35;;;;;;;36.31;14.02;100980.34;5109949;28;20467;-61
2022/06/29 06:10:35;;;;;;;13.23;2.40;;;;;;;36.20;13.77;100996.69;5093315;28;20038;-61
2022/06/29 06:13:02;;;;;;;15.23;2.60;;;;;;;36.12;13.92;100986.75;5093028;28;20040;-61
2022/06/29 06:15:29;;;;;;;12.73;2.35;;;;;;;35.91;13.80;100987.16;5092897;28;20028;-60
2022/06/29 06:17:55;;;;;;;9.45;2.10;;;;;;;35.73;14.57;100991.09;5093033;28;20363;-61
2022/06/29 06:20:22;;;;;;;14.63;2.10;;;;;;;35.76;14.61;100980.16;5093393;28;20016;-61
2022/06/29 06:22:49;;;;;;;11.40;2.60;;;;;;;35.55;14.44;100979.31;5093037;28;20032;-61
2022/06/29 06:25:15;;;;;;;7.82;1.80;;;;;;;35.56;14.02;100975.25;5091768;28;20369;-61
2022/06/29 06:27:42;;;;;;;12.02;2.22;;;;;;;35.64;13.79;100985.19;5094495;28;20541;-60
2022/06/29 06:30:09;;;;;;;7.70;2.45;;;;;;;35.79;13.72;100977.25;5100349;28;20046;-60
2022/06/29 06:32:36;;;;;;;6.50;1.70;;;;;;;36.03;13.17;100967.50;5072776;28;20376;-60
2022/06/29 06:35:03;;;;;;;6.80;1.88;;;;;;;36.05;13.13;100967.06;5088896;28;20043;-60
2022/06/29 06:37:30;;;;;;;11.48;1.88;;;;;;;35.85;13.55;100983.22;5093586;28;20059;-61
2022/06/29 06:42:41;;;;;;;5.13;1.40;;;;;;;36.02;13.23;100976.44;5089248;28;20032;-60
2022/06/29 06:45:08;;;;;;;7.70;1.80;;;;;;;35.68;12.84;100977.44;5089203;28;20012;-61
2022/06/29 06:47:35;;;;;;;6.18;1.63;;;;;;;35.77;12.27;100979.72;5091494;28;20067;-60
2022/06/29 06:50:02;;;;;;;8.05;1.83;;;;;;;35.91;11.85;100956.03;5091492;28;20016;-60
2022/06/29 06:52:30;;;;;;;5.43;1.33;;;;;;;35.82;11.91;100972.75;5089917;28;20028;-61
2022/06/29 06:54:57;;;;;;;4.53;1.20;;;;;;;35.78;13.00;100974.84;5091392;28;20016;-61
2022/06/29 06:57:24;;;;;;;10.60;1.67;;;;;;;35.51;12.63;100967.25;5092552;28;20100;-61
2022/06/29 06:59:53;;;;;;;5.85;1.67;;;;;;;35.61;13.48;100966.25;5111702;28;20058;-60
2022/06/29 07:02:22;;;;;;;5.25;1.90;;;;;;;35.49;13.04;100969.69;5116759;28;20034;-61
2022/06/29 07:04:49;;;;;;;5.18;1.58;;;;;;;35.24;12.88;100978.56;5117083;28;20047;-61
2022/06/29 07:07:17;;;;;;;14.70;2.15;;;;;;;35.01;13.62;100968.03;5117127;28;20107;-60
2022/06/29 07:09:43;;;;;;;22.02;3.15;;;;;;;34.95;14.29;100980.22;5100712;28;20028;-61
2022/06/29 07:12:10;;;;;;;15.43;3.22;;;;;;;34.80;14.61;100968.31;5096784;28;20482;-60
2022/06/29 07:14:37;;;;;;;19.63;2.95;;;;;;;34.76;14.47;100967.56;5096392;28;20478;-61
2022/06/29 07:17:04;;;;;;;20.73;3.13;;;;;;;34.82;14.40;100965.84;5086883;28;20514;-61
2022/06/29 07:19:30;;;;;;;16.90;2.50;;;;;;;34.84;13.94;100960.59;5096497;28;20448;-61
2022/06/29 07:21:57;;;;;;;20.90;2.83;;;;;;;34.72;14.69;100966.81;5096383;28;20032;-61
2022/06/29 07:24:24;;;;;;;19.38;3.17;;;;;;;34.45;14.68;100961.13;5096123;28;20051;-61
2022/06/29 07:26:51;;;;;;;26.92;3.72;;;;;;;34.66;14.64;100968.53;5096597;28;20039;-61
2022/06/29 07:29:20;;;;;;;13.70;3.20;;;;;;;34.49;15.26;100970.38;5109653;28;20034;-61
2022/06/29 07:31:47;;;;;;;17.23;3.33;;;;;;;34.40;15.04;100968.03;5116531;28;20390;-61
2022/06/29 07:34:14;;;;;;;15.80;3.00;;;;;;;34.40;14.64;100968.03;5112579;28;20043;-61
2022/06/29 07:36:40;;;;;;;16.67;3.70;;;;;;;34.27;15.26;100963.34;5095932;28;20487;-61
2022/06/29 07:39:07;;;;;;;24.80;3.88;;;;;;;34.23;14.42;100963.38;5095720;28;20058;-61
2022/06/29 07:41:36;;;;;;;12.90;3.05;;;;;;;34.27;14.57;100966.16;5089701;28;20070;-61
2022/06/29 07:44:06;;;;;;;15.45;3.47;;;;;;;34.11;14.86;100970.38;5095740;28;20121;-61
2022/06/29 07:46:32;;;;;;;22.92;3.58;;;;;;;34.16;14.10;100969.13;5096004;28;20490;-61
2022/06/29 07:48:59;;;;;;;21.98;3.80;;;;;;;34.03;14.28;100965.22;5095767;28;20028;-61
2022/06/29 07:51:27;;;;;;;14.75;2.80;;;;;;;33.96;14.69;100965.31;5095756;28;20081;-61
2022/06/29 07:53:54;;;;;;;15.15;3.80;;;;;;;33.73;15.20;100969.53;5095408;28;20551;-61
2022/06/29 07:56:20;;;;;;;16.17;3.40;;;;;;;33.72;15.30;100962.28;5097974;28;20036;-61
2022/06/29 07:58:47;;;;;;;12.18;3.17;;;;;;;33.87;14.23;100963.78;5103361;28;20020;-62
2022/06/29 08:01:14;;;;;;;15.02;2.75;;;;;;;33.73;13.89;100958.25;5119129;27;20068;-62
2022/06/29 08:03:40;;;;;;;8.73;2.28;;;;;;;33.77;13.72;100959.03;5085355;28;20032;-61
2022/06/29 08:06:07;;;;;;;7.28;2.22;;;;;;;33.72;13.72;100962.28;5080504;28;20502;-62
2022/06/29 08:08:34;;;;;;;16.13;2.38;;;;;;;33.65;14.02;100960.34;5078612;28;20062;-61
2022/06/29 08:11:02;;;;;;;9.75;2.40;;;;;;;33.71;14.48;100954.25;5095432;28;20091;-61
2022/06/29 08:13:29;;;;;;;9.95;2.20;;;;;;;33.83;13.20;100956.56;5094440;28;20048;-61
2022/06/29 08:15:55;;;;;;;7.25;2.13;;;;;;;33.71;13.69;100954.25;5095206;28;20024;-62
2022/06/29 08:18:22;;;;;;;9.40;2.40;;;;;;;33.58;14.27;100954.00;5094984;28;20517;-62
2022/06/29 08:20:48;;;;;;;8.45;2.10;;;;;;;33.54;13.44;100956.81;5093809;28;20016;-61
2022/06/29 08:23:15;;;;;;;10.13;2.45;;;;;;;33.64;12.69;100946.66;5093298;28;20039;-61
2022/06/29 08:25:42;;;;;;;6.85;2.00;;;;;;;33.80;12.80;100946.91;5093163;28;20020;-61
2022/06/29 08:28:08;;;;;;;8.55;2.03;;;;;;;33.71;13.08;100943.78;5095321;28;20036;-61
2022/06/29 08:30:35;;;;;;;9.43;2.05;;;;;;;33.53;13.17;100938.31;5113422;28;20020;-61
2022/06/29 08:33:02;;;;;;;10.75;2.20;;;;;;;33.40;13.37;100933.63;5113148;28;20074;-61
2022/06/29 08:35:28;;;;;;;10.10;2.33;;;;;;;33.47;13.12;100934.34;5114295;28;20185;-61
2022/06/29 08:37:55;;;;;;;10.50;2.05;;;;;;;33.71;13.20;100932.50;5115105;28;20096;-61
2022/06/29 08:40:22;;;;;;;14.88;2.28;;;;;;;33.82;12.80;100938.03;5094978;28;20111;-61
2022/06/29 08:42:49;;;;;;;11.45;2.22;;;;;;;33.70;13.04;100930.09;5095066;28;20028;-61
2022/06/29 08:45:16;;;;;;;10.95;2.15;;;;;;;33.49;13.31;100931.91;5094814;28;20028;-61
2022/06/29 08:47:43;;;;;;;6.22;1.80;;;;;;;33.23;14.63;100926.91;5093682;28;20405;-61
2022/06/29 08:50:11;;;;;;;7.25;1.80;;;;;;;33.09;13.92;100924.19;5093571;28;20430;-61
2022/06/29 08:52:40;;;;;;;11.02;1.85;;;;;;;33.12;14.35;100918.50;5093580;28;20108;-61
2022/06/29 08:55:09;;;;;;;6.93;1.80;;;;;;;33.11;13.50;100919.72;5094517;28;20489;-61
2022/06/29 08:57:41;;;;;;;9.02;1.90;;;;;;;33.05;13.58;100921.41;5093457;28;20043;-60
2022/06/29 09:00:09;;;;;;;10.77;2.00;;;;;;;33.38;13.31;100919.94;5110788;28;20433;-61
2022/06/29 09:02:37;;;;;;;8.90;1.85;;;;;;;33.51;13.66;100925.84;5114556;28;20363;-61
2022/06/29 09:05:04;;;;;;;10.65;1.80;;;;;;;33.21;13.17;100930.09;5114960;28;20027;-61
2022/06/29 09:07:30;;;;;;;9.65;1.85;;;;;;;33.14;14.02;100916.09;5113485;28;20056;-61
2022/06/29 09:10:02;;;;;;;13.43;1.75;;;;;;;33.01;14.14;100914.97;5095707;28;20447;-61
2022/06/29 09:12:31;;;;;;;9.40;2.10;;;;;;;32.95;13.84;100922.28;5094065;28;20032;-61
2022/06/29 09:15:00;;;;;;;10.52;2.17;;;;;;;32.96;13.87;100915.41;5094218;28;20028;-61
2022/06/29 09:17:30;;;;;;;9.35;1.75;;;;;;;32.80;14.35;100910.31;5092874;28;20189;-61
2022/06/29 09:19:57;;;;;;;16.67;2.25;;;;;;;32.61;14.71;100911.59;5094025;28;20510;-61
2022/06/29 09:22:23;;;;;;;15.13;1.98;;;;;;;32.58;15.34;100909.59;5092669;28;20044;-61
2022/06/29 09:24:51;;;;;;;11.32;2.17;;;;;;;32.53;14.59;100923.31;5092425;28;20027;-61
2022/06/29 09:27:18;;;;;;;13.65;2.30;;;;;;;32.45;14.99;100914.09;5093765;28;20036;-61
2022/06/29 09:29:45;;;;;;;12.50;2.50;;;;;;;32.32;15.90;100916.59;5093153;28;20024;-61
2022/06/29 09:32:17;;;;;;;16.77;2.50;;;;;;;32.20;16.43;100919.81;5093858;28;20482;-61
2022/06/29 09:34:52;;;;;;;18.20;2.38;;;;;;;32.31;15.71;100919.78;5093719;28;20047;-61
2022/06/29 09:37:21;;;;;;;8.68;1.60;;;;;;;32.65;14.96;100918.00;5094011;28;20434;-61
2022/06/29 09:39:53;;;;;;;8.02;1.85;;;;;;;32.94;14.31;100920.66;5092207;28;20039;-61
2022/06/29 09:42:26;;;;;;;10.18;2.10;;;;;;;32.87;14.28;100923.53;5093648;28;20490;-61
2022/06/29 09:44:53;;;;;;;9.63;1.63;;;;;;;32.64;15.03;100924.84;5093852;28;20486;-61
2022/06/29 09:47:22;;;;;;;8.00;1.73;;;;;;;32.43;15.37;100922.94;5093632;28;20086;-61
2022/06/29 09:49:53;;;;;;;5.28;1.80;;;;;;;32.31;15.16;100931.03;5093620;28;20375;-61
2022/06/29 09:52:20;;;;;;;10.43;2.10;;;;;;;32.06;16.37;100940.34;5093383;28;20036;-61
2022/06/29 09:54:47;;;;;;;9.25;1.73;;;;;;;31.93;16.48;100946.81;5093568;28;20355;-61
2022/06/29 09:57:17;;;;;;;12.60;2.47;;;;;;;31.85;16.43;100948.84;5093507;28;20036;-61
2022/06/29 10:02:45;;;;;;;39.08;18.80;;;;;;;31.62;17.63;100956.88;5113733;27;20036;-61
2022/06/29 10:05:14;;;;;;;47.85;21.17;;;;;;;31.76;16.23;100963.31;5113822;28;20032;-61
2022/06/29 10:07:47;;;;;;;23.58;10.20;;;;;;;31.81;16.01;100959.31;5113562;28;20070;-60
2022/06/29 10:10:16;;;;;;;17.00;5.00;;;;;;;31.81;15.97;100953.69;5093543;28;20035;-60
2022/06/29 10:16:05;;;;;;;6.35;2.10;;;;;;;32.03;15.14;100965.66;5093181;28;20047;-60
2022/06/29 10:18:52;;;;;;;4.03;2.03;;;;;;;32.23;15.58;100964.00;5093159;28;20123;-60
2022/06/29 10:21:27;;;;;;;11.75;2.40;;;;;;;31.92;16.57;100960.06;5093077;28;20398;-61
2022/06/29 10:23:57;;;;;;;9.48;2.40;;;;;;;31.75;17.47;100960.91;5092979;28;20036;-61
2022/06/29 10:29:05;;;;;;;12.25;2.90;;;;;;;31.73;18.49;100977.38;5097304;28;20031;-60
2022/06/29 10:34:31;;;;;;;15.13;3.40;;;;;;;31.39;21.02;100982.56;5112706;28;20490;-61
2022/06/29 10:37:06;;;;;;;20.98;3.88;;;;;;;31.14;22.76;100988.13;5112725;28;20374;-60
2022/06/29 10:39:44;;;;;;;31.13;5.85;;;;;;;30.94;24.71;100985.69;5098979;28;20028;-61
2022/06/29 10:45:15;;;;;;;29.73;9.68;;;;;;;30.83;27.24;100996.06;5092224;28;20119;-61
2022/06/29 10:47:58;;;;;;;26.60;9.25;;;;;;;30.82;28.12;101005.69;5092602;28;20040;-61
2022/06/29 10:50:25;;;;;;;32.25;8.82;;;;;;;30.64;28.84;101004.84;5092922;28;20117;-60
2022/06/29 10:52:55;;;;;;;20.83;7.88;;;;;;;30.54;30.23;100999.97;5092981;28;20043;-61
2022/06/29 10:55:23;;;;;;;32.13;6.88;;;;;;;30.60;31.22;101004.00;5092678;28;20126;-60
2022/06/29 10:57:51;;;;;;;23.20;6.28;;;;;;;30.50;32.45;101005.53;5092939;28;20034;-60
2022/06/29 11:00:22;;;;;;;21.15;6.00;;;;;;;30.34;32.89;100996.66;5107562;28;20513;-60
2022/06/29 11:02:49;;;;;;;19.33;6.40;;;;;;;30.23;33.48;101007.81;5113143;28;20047;-60
2022/06/29 11:05:16;;;;;;;15.18;5.32;;;;;;;30.20;33.45;101003.00;5112791;28;20022;-61
2022/06/29 11:13:29;;;;;;;24.65;5.03;;;;;;;29.97;35.89;100997.59;5072425;28;20054;-60
2022/06/29 11:15:57;;;;;;;17.75;4.70;;;;;;;29.94;36.39;100997.59;5072638;28;20115;-60
2022/06/29 11:18:27;;;;;;;20.13;5.15;;;;;;;29.82;35.94;100997.94;5072253;28;20081;-60
2022/06/29 11:21:02;;;;;;;17.45;3.88;;;;;;;29.71;36.37;101001.44;5072521;28;20113;-60
2022/06/29 11:23:32;;;;;;;;;;;;;;;29.67;36.29;101006.22;5072674;28;20036;-60
2022/06/29 11:26:00;;;;;;;18.20;4.10;;;;;;;29.66;36.53;101006.59;5072074;28;19916;-60
2022/06/29 11:28:32;;;;;;;14.63;4.00;;;;;;;29.69;36.61;101003.81;5072207;28;20032;-60
2022/06/29 11:31:13;;;;;;;14.20;3.97;;;;;;;29.67;37.46;101008.22;5072275;28;20037;-60
2022/06/29 11:33:44;;;;;;;22.05;3.80;;;;;;;29.62;37.32;101012.16;5071995;28;20045;-60
2022/06/29 11:36:16;;;;;;;17.60;3.92;;;;;;;29.58;37.91;101010.53;5072153;28;20098;-61
2022/06/29 11:38:49;;;;;;;11.48;3.15;;;;;;;29.57;37.88;101020.94;5078707;28;20029;-61
2022/06/29 11:41:25;;;;;;;19.75;4.28;;;;;;;29.42;37.50;101019.16;5092627;28;20063;-61
2022/06/29 11:44:04;;;;;;;18.30;3.95;;;;;;;29.39;37.06;101023.53;5092496;28;20032;-61
2022/06/29 11:46:37;;;;;;;23.73;3.97;;;;;;;29.35;36.34;101030.31;5092559;28;20036;-61
2022/06/29 11:51:57;;;;;;;21.63;3.67;;;;;;;29.32;35.88;101029.06;5096207;28;20036;-60
2022/06/29 11:54:41;;;;;;;21.48;4.20;;;;;;;29.31;36.10;101032.25;5095862;28;20067;-61